createdAt,value
2023-04-03T00:02:02.642Z,5.10
2023-04-03T00:04:29.558Z,5.13
2023-04-03T00:06:56.376Z,5.14
2023-04-03T00:09:23.044Z,5.15
2023-04-03T00:11:49.781Z,5.19
2023-04-03T00:14:16.488Z,5.15
2023-04-03T00:16:43.361Z,5.18
2023-04-03T00:21:45.838Z,5.07
2023-04-03T00:24:12.535Z,5.16
2023-04-03T00:29:12.332Z,5.08
2023-04-03T00:31:38.993Z,5.16
2023-04-03T00:34:05.631Z,5.14
2023-04-03T00:36:32.350Z,4.93
2023-04-03T00:38:59.091Z,5.18
2023-04-03T00:41:26.720Z,5.13
2023-04-03T00:43:53.647Z,5.12
2023-04-03T00:46:20.690Z,5.00
2023-04-03T00:48:49.201Z,4.78
2023-04-03T00:51:19.189Z,4.84
2023-04-03T00:56:24.829Z,4.86
2023-04-03T00:58:57.719Z,4.93
2023-04-03T01:01:27.689Z,4.82
2023-04-03T01:03:54.606Z,4.80
2023-04-03T01:06:26.400Z,4.85
2023-04-03T01:08:53.675Z,4.81
2023-04-03T01:11:21.878Z,4.69
2023-04-03T01:13:48.541Z,4.81
2023-04-03T01:16:15.265Z,4.67
2023-04-03T01:18:43.312Z,4.73
2023-04-03T01:21:40.210Z,4.54
2023-04-03T01:24:23.726Z,4.61
2023-04-03T01:26:51.514Z,4.48
2023-04-03T01:29:18.142Z,4.61
2023-04-03T01:31:49.756Z,4.69
2023-04-03T01:34:16.650Z,4.70
2023-04-03T01:36:44.091Z,4.75
2023-04-03T01:39:10.934Z,4.69
2023-04-03T01:41:37.924Z,4.67
2023-04-03T01:44:05.389Z,4.68
2023-04-03T01:54:18.026Z,4.61
2023-04-03T01:56:44.715Z,4.48
2023-04-03T01:59:11.546Z,4.49
2023-04-03T02:01:38.283Z,4.60
2023-04-03T02:04:04.966Z,4.51
2023-04-03T02:06:31.668Z,4.53
2023-04-03T02:08:58.282Z,4.55
2023-04-03T02:11:24.971Z,4.53
2023-04-03T02:13:51.614Z,4.57
2023-04-03T02:16:18.488Z,4.60
2023-04-03T02:18:45.185Z,4.56
2023-04-03T02:21:11.874Z,4.48
2023-04-03T02:23:38.617Z,4.47
2023-04-03T02:26:11.347Z,4.47
2023-04-03T02:28:38.885Z,4.59
2023-04-03T02:31:07.643Z,4.45
2023-04-03T02:36:09.098Z,4.41
2023-04-03T02:38:36.351Z,4.34
2023-04-03T02:41:08.545Z,4.49
2023-04-03T02:43:36.138Z,4.50
2023-04-03T02:46:02.898Z,4.53
2023-04-03T02:48:29.948Z,4.56
2023-04-03T02:50:56.724Z,4.52
2023-04-03T02:53:24.204Z,4.38
2023-04-03T02:55:50.989Z,4.53
2023-04-03T02:58:17.746Z,4.41
2023-04-03T03:00:44.795Z,4.36
2023-04-03T03:03:11.578Z,4.53
2023-04-03T03:05:38.223Z,4.50
2023-04-03T03:08:04.923Z,4.50
2023-04-03T03:10:31.617Z,4.50
2023-04-03T03:12:58.339Z,4.56
2023-04-03T03:15:24.977Z,4.60
2023-04-03T03:17:51.617Z,4.42
2023-04-03T03:20:18.478Z,4.42
2023-04-03T03:22:45.117Z,4.46
2023-04-03T03:25:11.780Z,4.52
2023-04-03T03:27:38.581Z,4.51
2023-04-03T03:30:06.898Z,4.65
2023-04-03T03:32:33.583Z,4.65
2023-04-03T03:37:37.812Z,4.52
2023-04-03T03:40:04.762Z,4.57
2023-04-03T03:42:31.409Z,4.68
2023-04-03T03:44:58.080Z,4.69
2023-04-03T03:47:24.778Z,4.65
2023-04-03T03:49:51.756Z,4.63
2023-04-03T03:52:19.005Z,4.67
2023-04-03T03:54:45.758Z,4.71
2023-04-03T03:57:12.648Z,4.62
2023-04-03T04:02:17.742Z,4.76
2023-04-03T04:04:44.525Z,4.77
2023-04-03T04:07:11.314Z,4.77
2023-04-03T04:09:37.994Z,4.86
2023-04-03T04:12:04.852Z,4.83
2023-04-03T04:14:31.543Z,4.78
2023-04-03T04:19:35.466Z,4.89
2023-04-03T04:22:02.217Z,4.80
2023-04-03T04:24:28.912Z,4.96
2023-04-03T04:26:55.677Z,4.81
2023-04-03T04:29:22.363Z,4.91
2023-04-03T04:31:48.978Z,4.82
2023-04-03T04:34:16.291Z,4.83
2023-04-03T04:36:43.529Z,4.83
2023-04-03T04:39:10.403Z,4.69
2023-04-03T04:46:51.593Z,4.91
2023-04-03T04:49:18.360Z,4.78
2023-04-03T04:51:51.997Z,4.83
2023-04-03T04:54:19.339Z,4.74
2023-04-03T04:56:46.102Z,4.73
2023-04-03T04:59:12.826Z,4.59
2023-04-03T05:01:39.988Z,4.73
2023-04-03T05:04:06.943Z,4.73
2023-04-03T05:06:34.130Z,4.70
2023-04-03T05:09:01.230Z,4.75
2023-04-03T05:16:45.095Z,4.68
2023-04-03T05:21:49.260Z,4.64
2023-04-03T05:24:17.388Z,4.72
2023-04-03T05:31:43.269Z,4.75
2023-04-03T05:34:10.001Z,4.68
2023-04-03T05:36:36.727Z,4.68
2023-04-03T05:39:04.008Z,4.70
2023-04-03T05:41:31.073Z,4.69
2023-04-03T05:43:57.737Z,4.67
2023-04-03T05:46:24.532Z,4.51
2023-04-03T05:48:51.697Z,4.52
2023-04-03T05:51:25.109Z,4.55
2023-04-03T05:54:06.084Z,4.47
2023-04-03T05:56:32.720Z,4.53
2023-04-03T05:58:59.757Z,4.43
2023-04-03T06:01:26.526Z,4.63
2023-04-03T06:03:53.359Z,4.62
2023-04-03T06:06:20.173Z,4.61
2023-04-03T06:08:47.420Z,4.61
2023-04-03T06:11:14.158Z,4.78
2023-04-03T06:13:40.903Z,4.82
2023-04-03T06:16:07.718Z,4.92
2023-04-03T06:18:34.396Z,4.99
2023-04-03T06:21:02.070Z,4.82
2023-04-03T06:26:01.681Z,4.80
2023-04-03T06:28:28.469Z,5.01
2023-04-03T06:30:55.159Z,4.71
2023-04-03T06:33:21.833Z,4.79
2023-04-03T06:35:48.531Z,4.81
2023-04-03T06:38:15.231Z,4.75
2023-04-03T06:40:41.961Z,4.79
2023-04-03T06:43:08.734Z,4.86
2023-04-03T06:45:35.914Z,4.93
2023-04-03T06:48:02.883Z,4.99
2023-04-03T06:50:29.565Z,5.06
2023-04-03T06:52:56.271Z,5.04
2023-04-03T06:55:23.116Z,5.15
2023-04-03T06:57:49.793Z,5.14
2023-04-03T07:00:17.471Z,5.21
2023-04-03T07:02:44.246Z,5.18
2023-04-03T07:05:10.967Z,5.13
2023-04-03T07:07:38.964Z,5.31
2023-04-03T07:10:08.802Z,5.34
2023-04-03T07:12:35.847Z,5.48
2023-04-03T07:20:07.874Z,5.30
2023-04-03T07:22:34.566Z,5.58
2023-04-03T07:25:01.249Z,5.64
2023-04-03T07:27:28.154Z,5.73
2023-04-03T07:29:56.222Z,5.71
2023-04-03T07:32:23.308Z,5.75
2023-04-03T07:34:50.011Z,5.85
2023-04-03T07:37:19.055Z,5.96
2023-04-03T07:39:46.320Z,5.79
2023-04-03T07:42:13.702Z,5.79
2023-04-03T07:44:40.378Z,5.92
2023-04-03T07:47:07.074Z,5.80
2023-04-03T07:49:34.279Z,5.98
2023-04-03T07:52:01.241Z,6.04
2023-04-03T07:54:28.115Z,6.28
2023-04-03T07:56:54.816Z,6.18
2023-04-03T07:59:21.561Z,6.18
2023-04-03T08:01:48.182Z,6.10
2023-04-03T08:04:15.150Z,6.13
2023-04-03T08:06:46.605Z,6.27
2023-04-03T08:09:16.522Z,6.18
2023-04-03T08:11:43.925Z,6.16
2023-04-03T08:14:16.667Z,6.20
2023-04-03T08:16:45.106Z,6.13
2023-04-03T08:19:22.261Z,6.45
2023-04-03T08:21:49.569Z,6.41
2023-04-03T08:24:16.539Z,6.40
2023-04-03T08:26:43.201Z,6.46
2023-04-03T08:29:09.871Z,6.33
2023-04-03T08:31:36.675Z,6.21
2023-04-03T08:34:03.387Z,6.14
2023-04-03T08:36:30.828Z,6.07
2023-04-03T08:38:58.241Z,6.06
2023-04-03T08:47:22.647Z,8.04
2023-04-03T08:50:03.074Z,8.41
2023-04-03T08:52:39.847Z,8.62
2023-04-03T08:55:17.105Z,8.50
2023-04-03T08:57:46.819Z,7.90
2023-04-03T09:00:20.994Z,7.65
2023-04-03T09:02:49.959Z,7.45
2023-04-03T09:05:25.454Z,7.35
2023-04-03T09:08:27.264Z,7.55
2023-04-03T09:11:08.503Z,7.83
2023-04-03T09:14:06.241Z,8.15
2023-04-03T09:17:01.484Z,7.93
2023-04-03T09:19:34.004Z,7.66
2023-04-03T09:25:07.346Z,7.47
2023-04-03T09:27:34.003Z,7.25
2023-04-03T09:30:00.701Z,7.34
2023-04-03T09:32:28.989Z,7.42
2023-04-03T09:35:01.581Z,7.51
2023-04-03T09:37:44.826Z,7.36
2023-04-03T09:40:29.392Z,7.04
2023-04-03T09:43:01.729Z,7.06
2023-04-03T09:45:28.765Z,7.07
2023-04-03T09:48:19.369Z,7.20
2023-04-03T09:50:52.509Z,7.30
2023-04-03T09:53:34.349Z,7.20
2023-04-03T09:56:02.155Z,7.24
2023-04-03T09:58:49.728Z,7.08
2023-04-03T10:01:31.474Z,7.00
2023-04-03T10:04:07.325Z,7.06
2023-04-03T10:06:41.970Z,6.94
2023-04-03T10:09:28.321Z,6.80
2023-04-03T10:12:08.210Z,6.88
2023-04-03T10:14:37.690Z,6.78
2023-04-03T10:17:24.452Z,6.87
2023-04-03T10:20:26.323Z,6.92
2023-04-03T10:23:17.952Z,6.83
2023-04-03T10:25:50.984Z,6.88
2023-04-03T10:28:36.028Z,6.90
2023-04-03T10:34:15.238Z,6.90
2023-04-03T10:36:47.924Z,7.00
2023-04-03T10:39:20.571Z,7.05
2023-04-03T10:42:08.962Z,6.79
2023-04-03T10:45:00.194Z,7.07
2023-04-03T10:47:47.800Z,7.13
2023-04-03T10:50:40.494Z,6.94
2023-04-03T10:53:36.722Z,7.00
2023-04-03T10:56:17.338Z,7.05
2023-04-03T10:58:48.230Z,6.90
2023-04-03T11:01:21.839Z,6.86
2023-04-03T11:03:54.320Z,6.97
2023-04-03T11:06:24.918Z,7.03
2023-04-03T11:09:00.155Z,7.18
2023-04-03T11:11:33.836Z,7.13
2023-04-03T11:14:14.516Z,6.85
2023-04-03T11:16:53.569Z,6.96
2023-04-03T11:19:27.072Z,6.92
2023-04-03T11:22:08.295Z,6.75
2023-04-03T11:24:39.619Z,7.12
2023-04-03T11:27:06.571Z,7.26
2023-04-03T11:29:37.783Z,7.37
2023-04-03T11:32:28.631Z,7.47
2023-04-03T11:37:33.885Z,7.48
2023-04-03T11:40:27.784Z,7.58
2023-04-03T11:43:05.964Z,7.66
2023-04-03T11:45:38.496Z,7.22
2023-04-03T11:48:28.424Z,7.29
2023-04-03T11:51:13.638Z,7.23
2023-04-03T11:53:43.028Z,7.14
2023-04-03T11:56:24.819Z,7.26
2023-04-03T11:59:13.419Z,7.17
2023-04-03T12:01:59.618Z,7.51
2023-04-03T12:04:28.316Z,7.59
2023-04-03T12:07:19.124Z,8.34
2023-04-03T12:09:45.780Z,8.24
2023-04-03T12:12:32.432Z,8.05
2023-04-03T12:15:23.122Z,7.83
2023-04-03T12:17:50.088Z,7.67
2023-04-03T12:21:08.157Z,7.44
2023-04-03T12:23:37.478Z,7.29
2023-04-03T12:26:20.625Z,7.28
2023-04-03T12:28:48.029Z,7.41
2023-04-03T12:31:15.989Z,7.56
2023-04-03T12:33:57.937Z,7.64
2023-04-03T12:36:38.984Z,7.67
2023-04-03T12:39:09.327Z,7.39
2023-04-03T12:41:51.454Z,7.28
2023-04-03T12:44:39.066Z,7.25
2023-04-03T12:47:22.898Z,7.36
2023-04-03T12:49:52.597Z,7.03
2023-04-03T12:55:20.225Z,7.42
2023-04-03T12:57:47.343Z,7.40
2023-04-03T13:00:40.979Z,7.56
2023-04-03T13:03:23.118Z,7.50
2023-04-03T13:05:50.031Z,7.50
2023-04-03T13:08:20.345Z,7.47
2023-04-03T13:11:13.089Z,7.32
2023-04-03T13:13:40.627Z,7.30
2023-04-03T13:16:12.862Z,7.50
2023-04-03T13:18:39.619Z,7.57
2023-04-03T13:21:14.794Z,7.81
2023-04-03T13:23:46.031Z,7.95
2023-04-03T13:26:13.158Z,8.00
2023-04-03T13:28:41.864Z,8.07
2023-04-03T13:31:15.309Z,8.03
2023-04-03T13:33:56.175Z,7.82
2023-04-03T13:36:28.474Z,7.78
2023-04-03T13:39:16.741Z,7.68
2023-04-03T13:41:49.186Z,7.70
2023-04-03T13:44:28.527Z,7.65
2023-04-03T13:47:13.464Z,7.67
2023-04-03T13:49:44.083Z,7.59
2023-04-03T13:52:37.165Z,7.48
2023-04-03T13:55:48.371Z,7.55
2023-04-03T13:58:09.487Z,7.69
2023-04-03T14:03:53.024Z,7.68
2023-04-03T14:06:19.872Z,7.95
2023-04-03T14:08:47.350Z,8.10
2023-04-03T14:11:17.479Z,8.20
2023-04-03T14:13:47.257Z,8.12
2023-04-03T14:16:20.960Z,7.65
2023-04-03T14:18:49.124Z,7.96
2023-04-03T14:21:17.763Z,8.05
2023-04-03T14:23:45.394Z,7.98
2023-04-03T14:26:21.621Z,7.97
2023-04-03T14:28:52.573Z,7.86
2023-04-03T14:31:20.151Z,7.81
2023-04-03T14:33:47.793Z,7.92
2023-04-03T14:36:26.525Z,7.90
2023-04-03T14:38:54.273Z,7.68
2023-04-03T14:41:23.904Z,7.71
2023-04-03T14:43:51.632Z,7.72
2023-04-03T14:46:45.513Z,7.77
2023-04-03T14:49:23.017Z,7.78
2023-04-03T14:51:49.712Z,7.87
2023-04-03T14:54:20.159Z,8.19
2023-04-03T14:56:47.210Z,8.08
2023-04-03T15:01:49.663Z,7.98
2023-04-03T15:04:19.149Z,7.90
2023-04-03T15:06:47.879Z,7.49
2023-04-03T15:09:26.197Z,7.25
2023-04-03T15:14:36.175Z,7.60
2023-04-03T15:19:54.833Z,7.85
2023-04-03T15:22:21.700Z,7.85
2023-04-03T15:24:48.662Z,7.93
2023-04-03T15:27:16.609Z,7.72
2023-04-03T15:29:44.880Z,7.74
2023-04-03T15:32:11.842Z,7.66
2023-04-03T15:34:39.443Z,7.84
2023-04-03T15:37:06.704Z,7.55
2023-04-03T15:39:33.455Z,7.91
2023-04-03T15:42:07.340Z,8.30
2023-04-03T15:44:35.688Z,8.27
2023-04-03T15:47:03.628Z,8.23
2023-04-03T15:49:31.781Z,7.77
2023-04-03T15:51:58.451Z,7.88
2023-04-03T15:54:25.935Z,7.75
2023-04-03T15:56:53.446Z,7.69
2023-04-03T15:59:20.874Z,7.70
2023-04-03T16:01:48.152Z,7.68
2023-04-03T16:04:15.820Z,7.71
2023-04-03T16:06:43.589Z,7.90
2023-04-03T16:09:11.374Z,8.07
2023-04-03T16:11:40.400Z,8.26
2023-04-03T16:14:11.085Z,8.21
2023-04-03T16:16:38.198Z,8.15
2023-04-03T16:19:06.057Z,8.14
2023-04-03T16:21:33.827Z,8.11
2023-04-03T16:26:38.536Z,7.64
2023-04-03T16:29:05.286Z,7.53
2023-04-03T16:31:33.924Z,7.47
2023-04-03T16:34:01.586Z,7.53
2023-04-03T16:36:28.420Z,7.49
2023-04-03T16:38:55.189Z,7.71
2023-04-03T16:41:21.888Z,7.67
2023-04-03T16:43:48.910Z,7.66
2023-04-03T16:46:15.709Z,7.77
2023-04-03T16:48:42.469Z,7.61
2023-04-03T16:51:09.193Z,7.41
2023-04-03T16:53:36.997Z,7.41
2023-04-03T16:56:03.655Z,7.49
2023-04-03T16:58:30.345Z,7.34
2023-04-03T17:00:57.086Z,7.34
2023-04-03T17:03:26.977Z,7.26
2023-04-03T17:05:53.863Z,7.19
2023-04-03T17:08:20.609Z,7.18
2023-04-03T17:10:48.740Z,7.17
2023-04-03T17:13:16.443Z,7.01
2023-04-03T17:15:43.289Z,7.01
2023-04-03T17:18:10.162Z,6.98
2023-04-03T17:20:39.006Z,7.19
2023-04-03T17:23:06.416Z,7.09
2023-04-03T17:25:33.206Z,7.01
2023-04-03T17:27:59.831Z,7.01
2023-04-03T17:30:26.502Z,7.01
2023-04-03T17:32:53.188Z,7.02
2023-04-03T17:35:19.975Z,7.00
2023-04-03T17:37:48.914Z,6.99
2023-04-03T17:40:18.015Z,6.96
2023-04-03T17:42:44.712Z,6.90
2023-04-03T17:45:11.771Z,6.81
2023-04-03T17:47:38.606Z,6.79
2023-04-03T17:50:06.239Z,6.79
2023-04-03T17:52:32.942Z,6.70
2023-04-03T17:54:59.582Z,6.75
2023-04-03T17:57:26.305Z,6.64
2023-04-03T17:59:54.323Z,6.74
2023-04-03T18:02:21.320Z,6.77
2023-04-03T18:04:48.034Z,6.78
2023-04-03T18:07:14.734Z,6.76
2023-04-03T18:09:42.282Z,6.54
2023-04-03T18:12:10.089Z,6.60
2023-04-03T18:14:37.939Z,6.62
2023-04-03T18:17:04.822Z,6.37
2023-04-03T18:19:31.801Z,6.37
2023-04-03T18:22:02.419Z,6.31
2023-04-03T18:24:31.924Z,6.26
2023-04-03T18:27:10.107Z,6.13
2023-04-03T18:29:38.746Z,6.04
2023-04-03T18:32:08.055Z,5.88
2023-04-03T18:34:34.799Z,6.11
2023-04-03T18:37:03.326Z,5.96
2023-04-03T18:39:30.509Z,5.93
2023-04-03T18:44:33.949Z,5.80
2023-04-03T18:47:00.851Z,5.81
2023-04-03T18:49:32.916Z,5.65
2023-04-03T18:51:59.842Z,5.67
2023-04-03T18:54:26.516Z,5.53
2023-04-03T18:56:53.122Z,5.74
2023-04-03T18:59:19.895Z,5.66
2023-04-03T19:01:46.765Z,5.57
2023-04-03T19:04:13.982Z,5.52
2023-04-03T19:06:40.798Z,5.66
2023-04-03T19:09:08.300Z,5.61
2023-04-03T19:11:35.711Z,5.56
2023-04-03T19:14:14.272Z,5.52
2023-04-03T19:16:41.855Z,5.59
2023-04-03T19:19:08.955Z,5.62
2023-04-03T19:21:41.131Z,5.48
2023-04-03T19:24:12.530Z,5.52
2023-04-03T19:26:40.131Z,5.56
2023-04-03T19:29:07.410Z,5.42
2023-04-03T19:31:35.264Z,5.46
2023-04-03T19:34:03.839Z,5.41
2023-04-03T19:36:31.847Z,5.42
2023-04-03T19:38:58.554Z,5.39
2023-04-03T19:41:28.775Z,5.23
2023-04-03T19:43:56.474Z,5.28
2023-04-03T19:46:25.574Z,5.18
2023-04-03T19:48:52.439Z,5.29
2023-04-03T19:51:19.255Z,5.24
2023-04-03T19:53:47.499Z,5.09
2023-04-03T19:56:17.173Z,5.09
2023-04-03T19:58:44.362Z,5.02
2023-04-03T20:01:11.691Z,5.01
2023-04-03T20:03:38.671Z,4.95
2023-04-03T20:06:05.936Z,5.02
2023-04-03T20:08:32.989Z,4.92
2023-04-03T20:16:17.327Z,4.87
2023-04-03T20:18:44.764Z,4.68
2023-04-03T20:21:12.362Z,4.50
2023-04-03T20:23:39.120Z,4.50
2023-04-03T20:26:11.054Z,4.48
2023-04-03T20:28:42.476Z,4.51
2023-04-03T20:31:10.289Z,4.37
2023-04-03T20:33:37.857Z,4.51
2023-04-03T20:36:04.633Z,4.34
2023-04-03T20:38:31.470Z,4.31
2023-04-03T20:40:58.222Z,4.21
2023-04-03T20:43:25.629Z,4.22
2023-04-03T20:45:52.713Z,3.98
2023-04-03T20:48:19.479Z,4.26
2023-04-03T20:56:01.238Z,3.92
2023-04-03T20:58:30.598Z,4.07
2023-04-03T21:00:57.740Z,4.11
2023-04-03T21:03:28.012Z,3.97
2023-04-03T21:06:00.607Z,4.08
2023-04-03T21:09:05.589Z,3.95
2023-04-03T21:12:09.874Z,3.79
2023-04-03T21:15:14.815Z,3.90
2023-04-03T21:18:36.229Z,3.78
2023-04-03T21:21:04.005Z,3.61
2023-04-03T21:23:32.116Z,3.67
2023-04-03T21:26:00.415Z,3.66
2023-04-03T21:28:27.483Z,3.43
2023-04-03T21:30:54.230Z,3.53
2023-04-03T21:33:20.926Z,3.57
2023-04-03T21:35:48.190Z,3.53
2023-04-03T21:38:15.690Z,3.46
2023-04-03T21:43:13.764Z,3.54
2023-04-03T21:45:40.992Z,3.51
2023-04-03T21:48:10.343Z,3.41
2023-04-03T21:50:37.454Z,3.42
2023-04-03T21:53:04.250Z,3.37
2023-04-03T21:55:30.921Z,3.47
2023-04-03T22:00:31.381Z,3.28
2023-04-03T22:03:09.626Z,3.40
2023-04-03T22:05:37.499Z,3.29
2023-04-03T22:08:04.422Z,3.16
2023-04-03T22:13:08.579Z,3.14
2023-04-03T22:18:16.500Z,3.28
2023-04-03T22:23:21.743Z,3.16
2023-04-03T22:26:01.455Z,2.98
2023-04-03T22:28:29.088Z,3.01
2023-04-03T22:30:56.452Z,3.03
2023-04-03T22:33:23.592Z,3.07
2023-04-03T22:35:51.316Z,3.08
2023-04-03T22:40:58.374Z,2.63
2023-04-03T22:43:27.781Z,2.93
2023-04-03T22:45:55.189Z,2.89
2023-04-03T22:48:22.652Z,2.78
2023-04-03T22:50:49.857Z,2.83
2023-04-03T22:53:16.508Z,2.68
2023-04-03T22:55:43.253Z,2.58
2023-04-03T22:58:09.952Z,2.60
2023-04-03T23:00:36.674Z,2.75
2023-04-03T23:03:03.715Z,2.77
2023-04-03T23:08:08.300Z,2.81
2023-04-03T23:10:34.952Z,2.71
2023-04-03T23:15:40.142Z,2.49
2023-04-03T23:18:07.175Z,2.62
2023-04-03T23:20:33.879Z,2.45
2023-04-03T23:23:00.506Z,2.58
2023-04-03T23:25:27.187Z,2.52
2023-04-03T23:27:54.046Z,2.35
2023-04-03T23:32:53.010Z,2.16
2023-04-03T23:35:19.644Z,2.27
2023-04-03T23:40:17.785Z,2.10
2023-04-03T23:42:44.476Z,2.05
2023-04-03T23:45:11.126Z,2.22
2023-04-03T23:47:37.953Z,2.08
2023-04-03T23:50:04.886Z,2.05
2023-04-03T23:52:31.490Z,2.02
2023-04-03T23:54:58.116Z,1.89
2023-04-03T23:59:57.627Z,1.79
